Brownwood, TX

12:46 AM CDT on August 30, 2014 (GMT -0500)
Comanche | Change Station
CLOSE
Current Station
Airport
Location: Comanche,
Elevation: 1388 ft
Nearby Weather Stations

Elev 1388 ft 31.92 °N, 98.60 °W | Updated 11 minutes ago

Thunderstorm
Thunderstorm
74 °F
Feels Like 74 °F
N
0
Wind Variable Wind from North
Gusts 9 mph

Today
High -- | Low -- °F
--% Chance of Precip.
Yesterday
High -- | Low -- °F
Precip. -- in
7:10 AM 8:02 PM
Waxing Crescent, 19% visible
Pressure 29.96 in
Visibility 10.0 miles
Clouds
Dew Point 70 °F
Humidity 87%
Rainfall 0.01 in
Snow Depth Not available.
UV Not available.
Pollen 8.70 out of 12
Air Quality Not available.
Flu Activity Not available.
METAR KMKN 300535Z AUTO 00000KT 10SM 24/21 A2996 RMK AO2 P0001 T02350212

More Conditions Fewer Conditions

Pressure 29.96 in
Visibility 10.0 miles
Clouds
Dew Point 70 °F
Humidity 87%
Rainfall 0.01 in
Snow Depth Not available.
UV Not available.
Pollen 8.70 out of 12
Air Quality Not available.
Flu Activity Not available.
METAR KMKN 300535Z AUTO 00000KT 10SM 24/21 A2996 RMK AO2 P0001 T02350212

More Conditions Fewer Conditions

10-Day Weather Forecast

Almanac

Astronomy

Aug. 30, 2014 Rise Set
Actual Time 7:10 AM CDT 8:02 PM CDT
Civil Twilight 6:45 AM CDT 8:26 PM CDT
Nautical Twilight 6:15 AM CDT 8:56 PM CDT
Astronomical Twilight 5:45 AM CDT 9:26 PM CDT
Moon 11:39 AM CDT 10:58 PM CDT
Length of Visible Light 13h 41m
Length of Day
12h 51m
Tomorrow will be 1m 51s shorter.
Waxing Crescent, 19% of the Moon is Illuminated
Today
Waxing Crescent
Sep 2
First Quarter
Sep 8
Full
Sep 15
Last Quarter
Sep 24
New

Today's Extremes

State Highs State Lows

Community

WunderPhotos

Upload Photos

1,748,467 photos uploaded!

Nearby

Snow Depth

Station Depth Elevation
No new snow has been reported.

Earthquake Activity

City Distance Mag. Time & Date
No recent earthquake activity has been reported nearby.
Minimum magnitude displayed is 2.5.

Coastal Water Temperatures

Place Temperature
No Stations Reporting

Nearby Weather Stations